createdAt,value
2022-11-30T00:29:38.858Z,0
2022-11-30T00:30:19.409Z,0
2022-11-30T00:30:59.910Z,0
2022-11-30T00:31:40.361Z,0
2022-11-30T00:32:20.938Z,0
2022-11-30T00:33:01.450Z,0
2022-11-30T00:33:41.871Z,0
2022-11-30T00:34:22.311Z,0
2022-11-30T00:35:02.853Z,0
2022-11-30T00:41:49.551Z,0
2022-11-30T00:42:30.028Z,0
2022-11-30T00:43:10.482Z,0
2022-11-30T00:43:50.997Z,0
2022-11-30T00:44:31.526Z,0
2022-11-30T00:45:12.011Z,0
2022-11-30T00:45:52.587Z,0
2022-11-30T00:46:33.115Z,0
2022-11-30T00:47:13.545Z,0
2022-11-30T00:53:58.584Z,0
2022-11-30T00:54:38.984Z,0
2022-11-30T00:55:19.458Z,0
2022-11-30T00:55:59.961Z,0
2022-11-30T00:56:40.432Z,0
2022-11-30T00:57:20.923Z,0
2022-11-30T00:58:01.443Z,0
2022-11-30T00:58:41.904Z,0
2022-11-30T00:59:22.446Z,0
2022-11-30T01:00:02.950Z,0
2022-11-30T01:00:43.445Z,0
2022-11-30T01:07:28.543Z,0
2022-11-30T01:08:08.991Z,0
2022-11-30T01:08:51.102Z,0
2022-11-30T01:09:31.640Z,0
2022-11-30T01:10:12.136Z,0
2022-11-30T01:10:52.732Z,0
2022-11-30T01:11:33.160Z,0
2022-11-30T01:18:18.330Z,0
2022-11-30T01:18:58.837Z,0
2022-11-30T01:19:39.343Z,0
2022-11-30T01:20:19.867Z,0
2022-11-30T01:21:00.354Z,0
2022-11-30T01:21:40.902Z,0
2022-11-30T01:22:21.349Z,0
2022-11-30T01:23:01.898Z,0
2022-11-30T01:29:48.616Z,0
2022-11-30T01:30:29.189Z,0
2022-11-30T01:31:09.699Z,0
2022-11-30T01:31:50.134Z,0
2022-11-30T01:32:30.611Z,0
2022-11-30T01:33:11.160Z,0
2022-11-30T01:34:32.114Z,0
2022-11-30T01:35:12.607Z,0
2022-11-30T01:35:53.082Z,0
2022-11-30T01:40:38.458Z,0
2022-11-30T01:41:19.027Z,0
2022-11-30T01:41:59.499Z,0
2022-11-30T01:42:40.035Z,0
2022-11-30T01:43:20.514Z,0
2022-11-30T01:44:01.021Z,0
2022-11-30T01:44:41.582Z,0
2022-11-30T01:45:22.115Z,0
2022-11-30T01:46:02.635Z,0
2022-11-30T01:46:43.136Z,0
2022-11-30T01:47:23.649Z,0
2022-11-30T01:54:08.773Z,0
2022-11-30T01:54:49.539Z,0
2022-11-30T01:55:29.837Z,0
2022-11-30T01:56:10.280Z,0
2022-11-30T01:56:50.769Z,0
2022-11-30T01:57:31.296Z,0
2022-11-30T01:58:11.816Z,0
2022-11-30T01:58:52.314Z,0
2022-11-30T01:59:32.766Z,0
2022-11-30T02:00:13.302Z,0
2022-11-30T02:07:38.773Z,0
2022-11-30T02:08:19.343Z,0
2022-11-30T02:08:59.759Z,0
2022-11-30T02:09:40.220Z,0
2022-11-30T02:10:20.764Z,0
2022-11-30T02:11:01.220Z,0
2022-11-30T02:11:41.657Z,0
2022-11-30T02:12:22.172Z,0
2022-11-30T02:13:02.712Z,0
2022-11-30T02:13:43.101Z,0
2022-11-30T02:20:28.664Z,0
2022-11-30T02:21:09.162Z,0
2022-11-30T02:21:49.651Z,0
2022-11-30T02:22:30.157Z,0
2022-11-30T02:23:10.634Z,0
2022-11-30T02:23:51.137Z,0
2022-11-30T02:24:31.615Z,0
2022-11-30T02:25:12.088Z,0
2022-11-30T02:25:52.574Z,0
2022-11-30T02:26:33.066Z,0
2022-11-30T02:27:13.543Z,0
2022-11-30T02:32:29.386Z,0
2022-11-30T02:33:09.059Z,0
2022-11-30T02:33:49.554Z,0
2022-11-30T02:34:30.006Z,0
2022-11-30T02:35:10.519Z,0
2022-11-30T02:35:54.665Z,0
2022-11-30T02:36:31.534Z,0
2022-11-30T02:37:12.011Z,0
2022-11-30T02:37:52.507Z,0
2022-11-30T02:38:33.031Z,0
2022-11-30T02:39:13.522Z,0
2022-11-30T02:45:58.408Z,0
2022-11-30T02:46:38.895Z,0
2022-11-30T02:47:19.427Z,0
2022-11-30T02:47:59.891Z,0
2022-11-30T02:48:40.384Z,0
2022-11-30T02:49:20.866Z,0
2022-11-30T02:50:01.336Z,0
2022-11-30T02:50:41.795Z,0
2022-11-30T02:51:22.263Z,0
2022-11-30T02:52:02.755Z,0
2022-11-30T02:52:43.248Z,0
2022-11-30T03:00:08.691Z,0
2022-11-30T03:00:49.168Z,0
2022-11-30T03:01:29.676Z,0
2022-11-30T03:02:10.894Z,0
2022-11-30T03:02:50.680Z,0
2022-11-30T03:03:31.072Z,0
2022-11-30T03:04:11.551Z,0
2022-11-30T03:04:52.074Z,0
2022-11-30T03:05:32.522Z,0
2022-11-30T03:06:13.028Z,0
2022-11-30T03:06:53.547Z,0
2022-11-30T03:13:38.402Z,0
2022-11-30T03:14:18.883Z,0
2022-11-30T03:14:59.357Z,0
2022-11-30T03:15:39.930Z,0
2022-11-30T03:16:20.344Z,0
2022-11-30T03:17:00.825Z,0
2022-11-30T03:17:41.285Z,0
2022-11-30T03:18:21.804Z,0
2022-11-30T03:19:02.301Z,0
2022-11-30T03:19:42.758Z,0
2022-11-30T03:20:24.092Z,0
2022-11-30T03:25:24.093Z,0
2022-11-30T03:26:04.562Z,0
2022-11-30T03:26:45.135Z,0
2022-11-30T03:27:25.588Z,0
2022-11-30T03:28:06.017Z,0
2022-11-30T03:28:46.570Z,0
2022-11-30T03:29:27.058Z,0
2022-11-30T03:30:07.588Z,0
2022-11-30T03:30:48.039Z,0
2022-11-30T03:31:28.581Z,0
2022-11-30T03:32:09.039Z,0
2022-11-30T03:37:50.478Z,0
2022-11-30T03:38:31.454Z,0
2022-11-30T03:39:12.606Z,0
2022-11-30T03:39:57.867Z,0
2022-11-30T03:40:34.538Z,0
2022-11-30T03:44:40.484Z,0
2022-11-30T03:45:21.457Z,0
2022-11-30T03:46:02.459Z,0
2022-11-30T03:46:43.409Z,0
2022-11-30T03:47:24.346Z,0
2022-11-30T03:48:05.336Z,0
2022-11-30T03:51:30.417Z,0
2022-11-30T03:52:11.389Z,0
2022-11-30T03:52:52.387Z,0
2022-11-30T03:53:33.416Z,0
2022-11-30T03:54:14.392Z,0
2022-11-30T03:54:55.474Z,0
2022-11-30T03:58:20.566Z,0
2022-11-30T03:59:01.560Z,0
2022-11-30T03:59:42.713Z,0
2022-11-30T04:00:23.723Z,0
2022-11-30T04:01:04.703Z,0
2022-11-30T04:01:45.715Z,0
2022-11-30T04:05:10.807Z,0
2022-11-30T04:05:51.779Z,0
2022-11-30T04:06:32.743Z,0
2022-11-30T04:07:13.734Z,0
2022-11-30T04:07:54.754Z,0
2022-11-30T04:12:00.747Z,0
2022-11-30T04:12:41.777Z,0
2022-11-30T04:13:22.878Z,0
2022-11-30T04:14:03.917Z,0
2022-11-30T04:14:45.264Z,0
2022-11-30T04:18:09.953Z,0
2022-11-30T04:18:50.913Z,0
2022-11-30T04:22:04.675Z,0
2022-11-30T04:22:45.158Z,0
2022-11-30T04:23:25.675Z,0
2022-11-30T04:24:06.156Z,0
2022-11-30T04:24:46.920Z,0
2022-11-30T04:25:27.124Z,0
2022-11-30T04:26:07.639Z,0
2022-11-30T04:26:48.112Z,0
2022-11-30T04:27:28.588Z,0
2022-11-30T04:28:09.076Z,0
2022-11-30T04:35:34.710Z,0
2022-11-30T04:36:15.203Z,0
2022-11-30T04:37:00.051Z,0
2022-11-30T04:37:36.203Z,0
2022-11-30T04:38:16.683Z,0
2022-11-30T04:38:57.166Z,0
2022-11-30T04:39:37.666Z,0
2022-11-30T04:40:18.201Z,0
2022-11-30T04:40:58.705Z,0
2022-11-30T04:41:39.096Z,0
2022-11-30T04:42:19.563Z,0
2022-11-30T04:49:04.406Z,0
2022-11-30T04:49:44.881Z,0
2022-11-30T04:50:25.380Z,0
2022-11-30T04:51:05.848Z,0
2022-11-30T04:51:46.326Z,0
2022-11-30T04:52:26.802Z,0
2022-11-30T04:53:07.257Z,0
2022-11-30T04:54:28.270Z,0
2022-11-30T04:55:08.791Z,0
2022-11-30T04:55:49.214Z,0
2022-11-30T05:03:14.644Z,0
2022-11-30T05:03:55.184Z,0
2022-11-30T05:04:35.689Z,0
2022-11-30T05:05:16.117Z,0
2022-11-30T05:05:56.668Z,0
2022-11-30T05:06:37.138Z,0
2022-11-30T05:07:17.644Z,0
2022-11-30T05:07:58.169Z,0
2022-11-30T05:08:38.595Z,0
2022-11-30T05:11:52.234Z,0
2022-11-30T05:12:32.754Z,0
2022-11-30T05:13:13.227Z,0
2022-11-30T05:13:53.736Z,0
2022-11-30T05:14:34.862Z,0
2022-11-30T05:15:15.350Z,0
2022-11-30T05:15:55.989Z,0
2022-11-30T05:16:36.436Z,0
2022-11-30T05:17:16.988Z,0
2022-11-30T05:24:42.416Z,0
2022-11-30T05:25:22.880Z,0
2022-11-30T05:26:03.397Z,0
2022-11-30T05:26:43.897Z,0
2022-11-30T05:27:24.435Z,0
2022-11-30T05:28:04.924Z,0
2022-11-30T05:29:26.786Z,0
2022-11-30T05:30:07.279Z,0
2022-11-30T05:36:52.085Z,0
2022-11-30T05:37:32.613Z,0
2022-11-30T05:38:13.120Z,0
2022-11-30T05:38:53.683Z,0
2022-11-30T05:39:34.134Z,0
2022-11-30T05:40:14.666Z,0
2022-11-30T05:40:55.142Z,0
2022-11-30T05:41:35.753Z,0
2022-11-30T05:42:16.243Z,0
2022-11-30T05:42:56.706Z,0
2022-11-30T05:43:37.228Z,0
2022-11-30T05:50:22.116Z,0
2022-11-30T05:51:02.628Z,0
2022-11-30T05:51:43.122Z,0
2022-11-30T05:52:23.581Z,0
2022-11-30T05:53:04.068Z,0
2022-11-30T05:53:44.594Z,0
2022-11-30T05:54:25.032Z,0
2022-11-30T06:32:24.699Z,0
2022-11-30T06:33:05.267Z,0
2022-11-30T06:33:45.753Z,0
2022-11-30T06:34:26.274Z,0
2022-11-30T06:35:06.731Z,0
2022-11-30T06:35:47.211Z,0
2022-11-30T06:36:32.667Z,0
2022-11-30T06:37:08.187Z,0
2022-11-30T06:37:48.676Z,0
2022-11-30T06:39:09.669Z,0
2022-11-30T06:45:54.713Z,0
2022-11-30T06:46:35.197Z,0
2022-11-30T06:47:15.830Z,0
2022-11-30T06:47:56.260Z,0
2022-11-30T06:49:17.306Z,0
2022-11-30T06:49:57.865Z,0
2022-11-30T06:50:38.340Z,0
2022-11-30T06:51:18.852Z,0
2022-11-30T06:51:59.365Z,0
2022-11-30T06:57:40.326Z,0
2022-11-30T06:58:20.581Z,0
2022-11-30T06:59:01.224Z,0
2022-11-30T06:59:41.816Z,0
2022-11-30T07:00:24.924Z,0
2022-11-30T07:05:09.710Z,4
2022-11-30T07:05:50.329Z,4
2022-11-30T07:06:30.906Z,4
2022-11-30T07:07:12.018Z,4
2022-11-30T07:07:52.567Z,4
2022-11-30T07:08:34.095Z,4
2022-11-30T07:09:14.721Z,4
2022-11-30T07:12:40.185Z,8
2022-11-30T07:13:21.197Z,12
2022-11-30T07:14:02.021Z,12
2022-11-30T07:14:43.055Z,12
2022-11-30T07:15:23.701Z,12
2022-11-30T07:16:04.346Z,16
2022-11-30T07:16:45.034Z,16
2022-11-30T07:20:50.024Z,24
2022-11-30T07:21:30.909Z,24
2022-11-30T07:22:12.017Z,28
2022-11-30T07:22:53.552Z,28
2022-11-30T07:23:34.050Z,28
2022-11-30T07:28:20.509Z,36
2022-11-30T07:29:01.472Z,36
2022-11-30T07:29:42.207Z,36
2022-11-30T07:30:22.737Z,36
2022-11-30T07:31:03.223Z,40
2022-11-30T07:31:44.191Z,40
2022-11-30T07:32:24.952Z,44
2022-11-30T07:36:31.924Z,48
2022-11-30T07:37:12.865Z,52
2022-11-30T07:37:53.391Z,52
2022-11-30T07:38:34.294Z,52
2022-11-30T07:43:19.837Z,68
2022-11-30T07:44:00.541Z,68
2022-11-30T07:47:32.470Z,76
2022-11-30T07:48:12.572Z,80
2022-11-30T07:48:56.379Z,80
2022-11-30T07:49:37.195Z,80
2022-11-30T07:53:51.963Z,92
2022-11-30T07:54:32.956Z,96
2022-11-30T07:55:13.474Z,100
2022-11-30T07:55:56.928Z,104
2022-11-30T07:56:34.581Z,108
2022-11-30T07:57:15.041Z,112
2022-11-30T07:57:55.550Z,116
2022-11-30T07:58:36.082Z,116
2022-11-30T08:06:01.838Z,184
2022-11-30T08:06:43.622Z,196
2022-11-30T08:09:59.222Z,188
2022-11-30T08:10:40.656Z,200
2022-11-30T08:11:21.042Z,208
2022-11-30T08:12:01.548Z,212
2022-11-30T08:12:42.041Z,220
2022-11-30T08:13:22.597Z,228
2022-11-30T08:14:03.183Z,224
2022-11-30T08:20:50.080Z,280
2022-11-30T08:21:28.662Z,280
2022-11-30T08:22:09.172Z,292
2022-11-30T08:22:49.700Z,296
2022-11-30T08:23:30.205Z,300
2022-11-30T08:24:10.722Z,296
2022-11-30T08:24:51.506Z,284
2022-11-30T08:25:31.748Z,264
2022-11-30T08:26:12.195Z,244
2022-11-30T08:27:33.234Z,228
2022-11-30T08:32:54.635Z,228
2022-11-30T08:33:44.066Z,220
2022-11-30T08:34:33.492Z,216
2022-11-30T08:35:21.987Z,212
2022-11-30T08:36:08.638Z,200
2022-11-30T08:36:51.911Z,184
2022-11-30T08:37:29.765Z,180
2022-11-30T08:40:05.522Z,180
2022-11-30T08:40:46.041Z,172
2022-11-30T08:41:26.646Z,176
2022-11-30T08:42:07.206Z,176
2022-11-30T08:42:47.821Z,168
2022-11-30T08:43:28.409Z,156
2022-11-30T08:44:08.957Z,156
2022-11-30T08:44:49.473Z,148
2022-11-30T08:50:55.387Z,116
2022-11-30T08:51:54.031Z,120
2022-11-30T08:52:18.085Z,116
2022-11-30T08:53:37.468Z,108
2022-11-30T08:54:18.054Z,116
2022-11-30T08:54:58.576Z,124
2022-11-30T08:55:39.059Z,128
2022-11-30T08:56:19.638Z,132
2022-11-30T08:57:00.188Z,136
2022-11-30T09:03:07.017Z,128
2022-11-30T09:03:47.485Z,128
2022-11-30T09:04:28.150Z,128
2022-11-30T09:05:08.659Z,128
2022-11-30T09:05:49.261Z,132
2022-11-30T09:06:29.800Z,136
2022-11-30T09:13:15.193Z,180
2022-11-30T09:13:55.708Z,184
2022-11-30T09:14:36.345Z,188
2022-11-30T09:15:16.823Z,188
2022-11-30T09:15:57.352Z,192
2022-11-30T09:16:37.875Z,192
2022-11-30T09:17:18.393Z,188
2022-11-30T09:17:58.918Z,184
2022-11-30T09:18:39.444Z,188
2022-11-30T09:19:20.059Z,192
2022-11-30T09:26:05.366Z,212
2022-11-30T09:26:45.958Z,204
2022-11-30T09:27:26.446Z,200
2022-11-30T09:28:47.582Z,196
2022-11-30T09:29:28.120Z,184
2022-11-30T09:30:08.716Z,164
2022-11-30T09:30:49.356Z,156
2022-11-30T09:31:29.862Z,144
2022-11-30T09:38:15.303Z,152
2022-11-30T09:38:55.921Z,152
2022-11-30T09:39:36.390Z,160
2022-11-30T09:40:17.033Z,160
2022-11-30T09:40:57.508Z,176
2022-11-30T09:41:37.986Z,196
2022-11-30T09:42:18.530Z,172
2022-11-30T09:42:59.215Z,164
2022-11-30T09:43:39.724Z,152
2022-11-30T09:44:20.227Z,160
2022-11-30T09:50:25.401Z,168
2022-11-30T09:51:05.947Z,168
2022-11-30T09:51:46.546Z,160
2022-11-30T09:52:27.546Z,168
2022-11-30T09:53:08.192Z,176
2022-11-30T09:53:49.107Z,192
2022-11-30T09:54:29.719Z,208
2022-11-30T09:55:10.350Z,204
2022-11-30T10:01:15.271Z,184
2022-11-30T10:01:57.249Z,172
2022-11-30T10:02:36.328Z,164
2022-11-30T10:03:16.882Z,168
2022-11-30T10:03:57.439Z,184
2022-11-30T10:04:37.971Z,188
2022-11-30T10:05:18.459Z,180
2022-11-30T10:05:58.975Z,176
2022-11-30T10:07:20.143Z,180
2022-11-30T10:12:45.485Z,180
2022-11-30T10:13:26.024Z,172
2022-11-30T10:21:48.543Z,168
2022-11-30T10:22:47.167Z,144
2022-11-30T10:25:11.806Z,148
2022-11-30T10:25:48.874Z,136
2022-11-30T10:26:29.556Z,148
2022-11-30T10:27:10.825Z,160
2022-11-30T10:27:51.517Z,160
2022-11-30T10:28:48.444Z,148
2022-11-30T10:29:12.884Z,156
2022-11-30T10:33:57.690Z,164
2022-11-30T10:34:38.177Z,168
2022-11-30T10:35:59.229Z,176
2022-11-30T10:36:40.057Z,180
2022-11-30T10:37:20.566Z,168
2022-11-30T10:38:01.133Z,168
2022-11-30T10:38:41.716Z,184
2022-11-30T10:39:22.364Z,184
2022-11-30T10:44:48.295Z,204
2022-11-30T10:45:28.580Z,200
2022-11-30T10:46:12.545Z,164
2022-11-30T10:46:49.610Z,152
2022-11-30T10:47:30.131Z,156
2022-11-30T10:48:10.674Z,148
2022-11-30T10:48:51.296Z,128
2022-11-30T10:49:33.844Z,128
2022-11-30T10:54:17.623Z,148
2022-11-30T10:55:04.114Z,148
2022-11-30T10:58:04.850Z,132
2022-11-30T10:58:53.537Z,132
2022-11-30T11:01:11.716Z,160
2022-11-30T11:01:52.006Z,184
2022-11-30T11:02:32.629Z,176
2022-11-30T11:03:13.918Z,168
2022-11-30T11:05:55.988Z,156
2022-11-30T11:06:36.598Z,192
2022-11-30T11:07:17.104Z,184
2022-11-30T11:08:01.397Z,156
2022-11-30T11:08:38.145Z,148
2022-11-30T11:09:18.621Z,156
2022-11-30T11:09:59.129Z,156
2022-11-30T11:10:39.661Z,152
2022-11-30T11:11:20.441Z,148
2022-11-30T11:17:25.835Z,144
2022-11-30T11:18:06.352Z,148
2022-11-30T11:18:46.877Z,160
2022-11-30T11:19:27.486Z,152
2022-11-30T11:20:08.041Z,164
2022-11-30T11:20:48.490Z,188
2022-11-30T11:21:29.072Z,180
2022-11-30T11:22:09.657Z,184
2022-11-30T11:22:50.190Z,192
2022-11-30T11:23:30.708Z,188
2022-11-30T11:26:50.622Z,168
2022-11-30T11:27:41.285Z,176
2022-11-30T11:30:52.880Z,156
2022-11-30T11:31:34.603Z,168
2022-11-30T11:32:17.245Z,168
2022-11-30T11:33:07.957Z,172
2022-11-30T11:33:47.178Z,176
2022-11-30T11:34:44.348Z,176
2022-11-30T11:38:09.703Z,160
2022-11-30T11:38:50.750Z,164
2022-11-30T11:39:32.897Z,156
2022-11-30T11:40:14.138Z,160
2022-11-30T11:42:58.917Z,136
2022-11-30T11:43:40.199Z,136
2022-11-30T11:44:21.805Z,144
2022-11-30T11:45:03.664Z,140
2022-11-30T11:48:29.526Z,136
2022-11-30T11:49:10.291Z,140
2022-11-30T11:49:52.241Z,144
2022-11-30T11:52:43.848Z,156
2022-11-30T11:54:48.908Z,140
2022-11-30T12:34:58.288Z,136
2022-11-30T12:35:38.693Z,144
2022-11-30T12:36:19.257Z,124
2022-11-30T12:36:59.734Z,108
2022-11-30T12:37:44.363Z,100
2022-11-30T12:38:21.749Z,100
2022-11-30T12:39:02.877Z,100
2022-11-30T12:43:08.010Z,124
2022-11-30T12:49:21.306Z,80
2022-11-30T12:50:02.892Z,76
2022-11-30T12:50:43.487Z,84
2022-11-30T12:51:29.486Z,88
2022-11-30T12:52:04.634Z,88
2022-11-30T12:52:45.245Z,88
2022-11-30T13:01:23.140Z,96
2022-11-30T13:02:03.577Z,100
2022-11-30T13:02:44.073Z,88
2022-11-30T13:03:24.618Z,84
2022-11-30T13:04:05.152Z,92
2022-11-30T13:04:45.961Z,96
2022-11-30T13:05:26.265Z,100
2022-11-30T13:06:06.788Z,96
2022-11-30T13:06:47.330Z,92
2022-11-30T13:10:20.885Z,80
2022-11-30T13:12:40.727Z,76
2022-11-30T13:13:21.102Z,76
2022-11-30T13:14:01.590Z,72
2022-11-30T13:14:42.187Z,76
2022-11-30T13:15:22.678Z,76
2022-11-30T13:16:04.735Z,80
2022-11-30T13:16:45.235Z,80
2022-11-30T13:22:50.413Z,64
2022-11-30T13:23:31.019Z,60
2022-11-30T13:24:11.567Z,60
2022-11-30T13:24:52.143Z,56
2022-11-30T13:26:06.679Z,56
2022-11-30T13:26:14.168Z,56
2022-11-30T13:29:28.855Z,48
2022-11-30T13:30:09.260Z,56
2022-11-30T13:30:49.814Z,56
2022-11-30T13:31:30.426Z,56
2022-11-30T13:32:22.470Z,64
2022-11-30T13:32:59.261Z,64
2022-11-30T13:36:07.196Z,72
2022-11-30T13:36:47.512Z,76
2022-11-30T13:37:28.120Z,80
2022-11-30T13:38:50.179Z,84
2022-11-30T13:39:30.718Z,84
2022-11-30T13:40:11.245Z,84
2022-11-30T13:40:51.770Z,84
2022-11-30T13:50:15.268Z,84
2022-11-30T13:50:55.646Z,84
2022-11-30T13:51:36.684Z,88
2022-11-30T13:52:24.479Z,88
2022-11-30T13:52:57.372Z,92
2022-11-30T13:53:37.895Z,84
2022-11-30T13:54:27.495Z,72
2022-11-30T13:54:58.972Z,68
2022-11-30T13:55:39.437Z,68
2022-11-30T14:01:44.363Z,64
2022-11-30T14:02:24.962Z,64
2022-11-30T14:03:05.460Z,56
2022-11-30T14:03:49.045Z,56
2022-11-30T14:04:26.414Z,60
2022-11-30T14:05:06.936Z,56
2022-11-30T14:05:47.456Z,52
2022-11-30T14:06:29.135Z,56
2022-11-30T14:07:08.517Z,52
2022-11-30T14:07:49.008Z,52
2022-11-30T14:08:29.549Z,60
2022-11-30T14:13:17.466Z,76
2022-11-30T14:13:57.997Z,76
2022-11-30T14:14:43.536Z,72
2022-11-30T14:15:19.087Z,72
2022-11-30T14:21:02.440Z,64
2022-11-30T14:21:42.886Z,68
2022-11-30T14:22:23.420Z,68
2022-11-30T14:23:04.579Z,68
2022-11-30T14:23:45.130Z,68
2022-11-30T14:24:25.662Z,72
2022-11-30T14:25:06.153Z,72
2022-11-30T14:30:14.296Z,52
2022-11-30T14:30:54.804Z,48
2022-11-30T14:32:54.195Z,56
2022-11-30T14:33:36.202Z,56
2022-11-30T14:37:08.030Z,36
2022-11-30T14:37:48.548Z,36
2022-11-30T14:38:29.074Z,40
2022-11-30T14:39:09.612Z,44
2022-11-30T14:39:50.360Z,40
2022-11-30T14:40:30.732Z,36
2022-11-30T14:41:11.249Z,32
2022-11-30T14:41:51.726Z,32
2022-11-30T14:42:32.723Z,32
2022-11-30T14:47:57.905Z,32
2022-11-30T14:48:38.379Z,32
2022-11-30T14:49:18.848Z,28
2022-11-30T14:49:59.399Z,28
2022-11-30T14:50:39.978Z,32
2022-11-30T14:51:20.532Z,28
2022-11-30T14:52:00.976Z,28
2022-11-30T14:52:41.469Z,24
2022-11-30T14:53:22.006Z,28
2022-11-30T14:56:51.054Z,20
2022-11-30T14:57:32.226Z,20
2022-11-30T14:58:12.753Z,16
2022-11-30T14:58:53.214Z,16
2022-11-30T14:59:33.866Z,16
2022-11-30T15:03:13.561Z,16
2022-11-30T15:03:54.234Z,12
2022-11-30T15:04:34.729Z,16
2022-11-30T15:05:15.258Z,12
2022-11-30T15:05:55.752Z,12
2022-11-30T15:06:36.331Z,12
2022-11-30T15:07:16.863Z,12
2022-11-30T15:07:57.379Z,16
2022-11-30T15:08:37.854Z,16
2022-11-30T15:09:18.537Z,12
2022-11-30T15:15:23.545Z,8
2022-11-30T15:16:04.210Z,8
2022-11-30T15:16:44.724Z,8
2022-11-30T15:17:25.188Z,8
2022-11-30T15:18:05.730Z,8
2022-11-30T15:18:46.183Z,8
2022-11-30T15:19:26.654Z,8
2022-11-30T15:20:07.151Z,4
2022-11-30T15:20:47.643Z,8
2022-11-30T15:21:28.139Z,8
2022-11-30T15:28:13.469Z,4
2022-11-30T15:28:53.965Z,4
2022-11-30T15:29:34.496Z,8
2022-11-30T15:30:15.038Z,8
2022-11-30T15:30:55.572Z,4
2022-11-30T15:31:36.135Z,4
2022-11-30T15:32:16.615Z,4
2022-11-30T15:32:57.134Z,4
2022-11-30T15:33:37.701Z,4
2022-11-30T15:40:23.499Z,4
2022-11-30T15:41:04.000Z,4
2022-11-30T15:41:44.587Z,4
2022-11-30T15:42:25.372Z,4
2022-11-30T15:43:05.884Z,4
2022-11-30T15:43:46.361Z,4
2022-11-30T15:45:07.370Z,0
2022-11-30T15:45:47.934Z,0
2022-11-30T15:46:29.533Z,0
2022-11-30T15:51:57.459Z,0
2022-11-30T15:52:34.022Z,0
2022-11-30T15:53:14.527Z,0
2022-11-30T15:53:55.065Z,0
2022-11-30T15:54:35.570Z,0
2022-11-30T15:55:16.139Z,0
2022-11-30T15:55:56.608Z,0
2022-11-30T15:56:37.092Z,0
2022-11-30T15:57:58.138Z,0
2022-11-30T15:58:38.660Z,0
2022-11-30T16:04:43.302Z,0
2022-11-30T16:05:23.792Z,0
2022-11-30T16:06:04.329Z,0
2022-11-30T16:06:44.846Z,0
2022-11-30T16:07:25.386Z,0
2022-11-30T16:08:05.875Z,0
2022-11-30T16:08:46.367Z,0
2022-11-30T16:09:26.908Z,0
2022-11-30T16:10:07.404Z,0
2022-11-30T16:10:47.998Z,0
2022-11-30T16:11:28.527Z,0
2022-11-30T16:18:25.909Z,0
2022-11-30T16:19:06.465Z,0
2022-11-30T16:19:47.365Z,0
2022-11-30T16:20:27.906Z,0
2022-11-30T16:21:08.361Z,0
2022-11-30T16:21:48.887Z,0
2022-11-30T16:22:29.522Z,0
2022-11-30T16:23:10.136Z,0
2022-11-30T16:23:50.899Z,0
2022-11-30T16:30:35.976Z,0
2022-11-30T16:31:16.527Z,0
2022-11-30T16:31:56.938Z,0
2022-11-30T16:32:37.401Z,0
2022-11-30T16:33:17.901Z,0
2022-11-30T16:33:58.422Z,0
2022-11-30T16:34:38.913Z,0
2022-11-30T16:35:19.412Z,0
2022-11-30T16:35:59.933Z,0
2022-11-30T16:36:40.988Z,0
2022-11-30T16:43:26.067Z,0
2022-11-30T16:44:06.606Z,0
2022-11-30T16:44:47.107Z,0
2022-11-30T16:46:08.233Z,0
2022-11-30T16:46:48.666Z,0
2022-11-30T16:47:29.224Z,0
2022-11-30T16:48:09.730Z,0
2022-11-30T16:51:43.733Z,0
2022-11-30T16:52:24.268Z,0
2022-11-30T16:53:04.759Z,0
2022-11-30T16:53:45.287Z,0
2022-11-30T16:57:19.749Z,0
2022-11-30T16:58:00.243Z,0
2022-11-30T16:58:40.786Z,0
2022-11-30T16:59:21.299Z,0
2022-11-30T17:00:01.775Z,0
2022-11-30T17:00:42.275Z,0
2022-11-30T17:01:22.846Z,0
2022-11-30T17:02:03.529Z,0
2022-11-30T17:02:43.909Z,0
2022-11-30T17:03:24.441Z,0
2022-11-30T17:10:09.514Z,0
2022-11-30T17:10:50.008Z,0
2022-11-30T17:11:30.554Z,0
2022-11-30T17:12:11.032Z,0
2022-11-30T17:13:32.113Z,0
2022-11-30T17:14:12.580Z,0
2022-11-30T17:14:53.073Z,0
2022-11-30T17:15:33.624Z,0
2022-11-30T17:16:14.186Z,0
2022-11-30T17:16:54.787Z,0
2022-11-30T17:20:10.328Z,0
2022-11-30T17:20:50.818Z,0
2022-11-30T17:21:31.308Z,0
2022-11-30T17:22:11.796Z,0
2022-11-30T17:22:52.350Z,0
2022-11-30T17:23:32.868Z,0
2022-11-30T17:24:13.355Z,0
2022-11-30T17:24:53.881Z,0
2022-11-30T17:25:34.363Z,0
2022-11-30T17:26:14.880Z,0
2022-11-30T17:26:55.424Z,0
2022-11-30T17:33:00.049Z,0
2022-11-30T17:33:45.013Z,0
2022-11-30T17:34:21.099Z,0
2022-11-30T17:35:01.612Z,0
2022-11-30T17:35:42.080Z,0
2022-11-30T17:36:22.572Z,0
2022-11-30T17:37:03.042Z,0
2022-11-30T17:37:43.523Z,0
2022-11-30T17:38:24.031Z,0
2022-11-30T17:39:04.582Z,0
2022-11-30T17:39:45.048Z,0
2022-11-30T17:46:30.095Z,0
2022-11-30T17:47:10.542Z,0
2022-11-30T17:47:51.067Z,0
2022-11-30T17:48:31.506Z,0
2022-11-30T17:49:12.003Z,0
2022-11-30T17:49:52.482Z,0
2022-11-30T17:50:32.975Z,0
2022-11-30T17:51:13.632Z,0
2022-11-30T17:51:54.053Z,0
2022-11-30T17:52:34.633Z,0
2022-11-30T18:34:43.798Z,0
2022-11-30T18:35:24.246Z,0
2022-11-30T18:36:04.725Z,0
2022-11-30T18:36:45.209Z,0
2022-11-30T18:37:25.685Z,0
2022-11-30T18:38:06.159Z,0
2022-11-30T18:38:46.640Z,0
2022-11-30T18:39:27.148Z,0
2022-11-30T18:40:07.657Z,0
2022-11-30T18:41:28.678Z,0
2022-11-30T18:48:13.589Z,0
2022-11-30T18:48:54.088Z,0
2022-11-30T18:49:34.572Z,0
2022-11-30T18:50:15.117Z,0
2022-11-30T18:50:55.613Z,0
2022-11-30T18:51:36.126Z,0
2022-11-30T18:52:16.608Z,0
2022-11-30T18:52:57.108Z,0
2022-11-30T18:53:37.587Z,0
2022-11-30T18:54:18.063Z,0
2022-11-30T18:54:58.579Z,0
2022-11-30T19:01:43.538Z,0
2022-11-30T19:02:24.070Z,0
2022-11-30T19:03:04.677Z,0
2022-11-30T19:03:45.075Z,0
2022-11-30T19:04:25.538Z,0
2022-11-30T19:05:11.854Z,0
2022-11-30T19:05:46.562Z,0
2022-11-30T19:06:27.016Z,0
2022-11-30T19:07:07.548Z,0
2022-11-30T19:07:48.116Z,0
2022-11-30T19:15:53.980Z,0
2022-11-30T19:16:34.605Z,0
2022-11-30T19:17:15.033Z,0
2022-11-30T19:17:55.458Z,0
2022-11-30T19:18:35.984Z,0
2022-11-30T19:19:16.470Z,0
2022-11-30T19:19:56.965Z,0
2022-11-30T19:20:37.460Z,0
2022-11-30T19:21:17.973Z,0
2022-11-30T19:21:58.420Z,0
2022-11-30T19:29:23.960Z,0
2022-11-30T19:30:04.487Z,0
2022-11-30T19:30:45.019Z,0
2022-11-30T19:31:25.520Z,0
2022-11-30T19:32:05.930Z,0
2022-11-30T19:32:46.399Z,0
2022-11-30T19:33:26.991Z,0
2022-11-30T19:34:12.175Z,0
2022-11-30T19:34:48.167Z,0
2022-11-30T19:35:28.451Z,0
2022-11-30T19:42:53.914Z,0
2022-11-30T19:43:34.425Z,0
2022-11-30T19:44:14.943Z,0
2022-11-30T19:44:55.439Z,0
2022-11-30T19:45:35.963Z,0
2022-11-30T19:46:16.493Z,0
2022-11-30T19:46:56.918Z,0
2022-11-30T19:47:37.430Z,0
2022-11-30T19:48:17.923Z,0
2022-11-30T19:48:58.393Z,0
2022-11-30T19:49:38.870Z,0
2022-11-30T19:56:23.724Z,0
2022-11-30T19:57:04.251Z,0
2022-11-30T19:57:44.696Z,0
2022-11-30T19:58:25.170Z,0
2022-11-30T19:59:06.260Z,0
2022-11-30T19:59:46.173Z,0
2022-11-30T20:00:26.633Z,0
2022-11-30T20:01:07.244Z,0
2022-11-30T20:01:47.715Z,0
2022-11-30T20:02:28.196Z,0
2022-11-30T20:03:08.688Z,0
2022-11-30T20:09:53.681Z,0
2022-11-30T20:10:34.190Z,0
2022-11-30T20:11:14.655Z,0
2022-11-30T20:11:55.165Z,0
2022-11-30T20:12:35.664Z,0
2022-11-30T20:13:16.137Z,0
2022-11-30T20:13:56.634Z,0
2022-11-30T20:14:37.111Z,0
2022-11-30T20:15:17.626Z,0
2022-11-30T20:15:58.165Z,0
2022-11-30T20:23:23.587Z,0
2022-11-30T20:24:04.055Z,0
2022-11-30T20:24:44.550Z,0
2022-11-30T20:25:25.058Z,0
2022-11-30T20:26:05.545Z,0
2022-11-30T20:26:46.079Z,0
2022-11-30T20:27:26.579Z,0
2022-11-30T20:28:11.216Z,0
2022-11-30T20:28:47.545Z,0
2022-11-30T20:29:28.055Z,0
2022-11-30T20:30:08.574Z,0
2022-11-30T20:36:53.556Z,0
2022-11-30T20:37:34.048Z,0
2022-11-30T20:38:14.538Z,0
2022-11-30T20:38:55.047Z,0
2022-11-30T20:39:35.531Z,0
2022-11-30T20:40:16.000Z,0
2022-11-30T20:40:56.504Z,0
2022-11-30T20:41:36.985Z,0
2022-11-30T20:42:17.474Z,0
2022-11-30T20:42:57.970Z,0
2022-11-30T20:43:38.500Z,0
2022-11-30T20:50:23.541Z,0
2022-11-30T20:52:24.999Z,0
2022-11-30T20:53:05.485Z,0
2022-11-30T20:53:45.967Z,0
2022-11-30T20:54:26.483Z,0
2022-11-30T20:55:06.941Z,0
2022-11-30T20:55:50.489Z,0
2022-11-30T20:56:27.948Z,0
2022-11-30T20:57:08.483Z,0
2022-11-30T21:03:53.533Z,0
2022-11-30T21:04:34.028Z,0
2022-11-30T21:05:14.536Z,0
2022-11-30T21:05:55.023Z,0
2022-11-30T21:06:35.547Z,0
2022-11-30T21:07:16.057Z,0
2022-11-30T21:07:56.586Z,0
2022-11-30T21:08:37.036Z,0
2022-11-30T21:09:17.529Z,0